Keilor, Australia
Current Conditions -  °F | °C
As of 3:00 PM on Tuesday 23 Dec 2014 (Local Time) from YMML Reporting Station
Rain Showers Rain Showers  
Wind Chill: 70°   Ceiling: 9000
Heat Index: 70°   Visibility: 6mi
Dew Point: 64°   Wind: 10mph
Humidity: 83%   Direction: 180°S
Pressure: 29.77"   Gusts: NA
Location:  37.72°S, 144.83°E
Report Text: YMML 230400Z 18009KT 9999 -SHRA FEW019 SCT040 BKN090 21/18 Q1008 INTER 0400/0700 5000 SHRA BKN015
Loading
Personal Weather Stations






























Interactive Weather Map New forecast layout! Learn more

10-Day Weather Forecast

Advertisements
Track Severe Weather on mobile